sensor_id;sensor_type;location;lat;lon;timestamp;P1;durP1;ratioP1;P2;durP2;ratioP2
20179;SDS011;10249;48.900;9.090;2023-07-20T00:02:23;15.07;;;14.37;;
20179;SDS011;10249;48.900;9.090;2023-07-20T00:04:50;15.70;;;14.90;;
20179;SDS011;10249;48.900;9.090;2023-07-20T00:07:17;15.23;;;14.53;;
20179;SDS011;10249;48.900;9.090;2023-07-20T00:09:44;15.17;;;14.47;;
20179;SDS011;10249;48.900;9.090;2023-07-20T00:12:12;14.80;;;14.10;;
20179;SDS011;10249;48.900;9.090;2023-07-20T00:14:40;15.83;;;15.03;;
20179;SDS011;10249;48.900;9.090;2023-07-20T00:17:07;15.20;;;14.50;;
20179;SDS011;10249;48.900;9.090;2023-07-20T00:19:34;14.97;;;14.27;;
20179;SDS011;10249;48.900;9.090;2023-07-20T00:22:02;15.23;;;14.53;;
20179;SDS011;10249;48.900;9.090;2023-07-20T00:24:30;15.27;;;14.57;;
20179;SDS011;10249;48.900;9.090;2023-07-20T00:26:58;16.50;;;15.70;;
20179;SDS011;10249;48.900;9.090;2023-07-20T00:29:25;15.27;;;14.57;;
20179;SDS011;10249;48.900;9.090;2023-07-20T00:31:54;15.50;;;14.80;;
20179;SDS011;10249;48.900;9.090;2023-07-20T00:34:21;15.00;;;14.30;;
20179;SDS011;10249;48.900;9.090;2023-07-20T00:36:48;15.07;;;14.37;;
20179;SDS011;10249;48.900;9.090;2023-07-20T00:39:15;15.03;;;14.33;;
20179;SDS011;10249;48.900;9.090;2023-07-20T00:41:42;15.47;;;14.77;;
20179;SDS011;10249;48.900;9.090;2023-07-20T00:44:09;15.57;;;14.87;;
20179;SDS011;10249;48.900;9.090;2023-07-20T00:46:37;15.93;;;15.23;;
20179;SDS011;10249;48.900;9.090;2023-07-20T00:49:08;15.50;;;14.80;;
20179;SDS011;10249;48.900;9.090;2023-07-20T00:51:35;15.23;;;14.53;;
20179;SDS011;10249;48.900;9.090;2023-07-20T00:54:02;15.20;;;14.50;;
20179;SDS011;10249;48.900;9.090;2023-07-20T00:56:29;15.30;;;14.60;;
20179;SDS011;10249;48.900;9.090;2023-07-20T00:58:56;14.90;;;14.20;;
20179;SDS011;10249;48.900;9.090;2023-07-20T01:01:24;15.03;;;14.33;;
20179;SDS011;10249;48.900;9.090;2023-07-20T01:03:51;15.33;;;14.63;;
20179;SDS011;10249;48.900;9.090;2023-07-20T01:06:23;15.37;;;14.67;;
20179;SDS011;10249;48.900;9.090;2023-07-20T01:08:55;16.03;;;15.33;;
20179;SDS011;10249;48.900;9.090;2023-07-20T01:11:31;15.00;;;14.30;;
20179;SDS011;10249;48.900;9.090;2023-07-20T01:13:59;15.00;;;14.30;;
20179;SDS011;10249;48.900;9.090;2023-07-20T01:16:27;15.37;;;14.67;;
20179;SDS011;10249;48.900;9.090;2023-07-20T01:18:54;15.87;;;15.17;;
20179;SDS011;10249;48.900;9.090;2023-07-20T01:21:24;15.13;;;14.43;;
20179;SDS011;10249;48.900;9.090;2023-07-20T01:26:38;14.80;;;14.20;;
20179;SDS011;10249;48.900;9.090;2023-07-20T01:29:22;14.70;;;14.10;;
20179;SDS011;10249;48.900;9.090;2023-07-20T01:31:56;14.60;;;14.00;;
20179;SDS011;10249;48.900;9.090;2023-07-20T01:34:24;14.70;;;14.10;;
20179;SDS011;10249;48.900;9.090;2023-07-20T01:36:52;14.20;;;13.60;;
20179;SDS011;10249;48.900;9.090;2023-07-20T01:39:20;14.67;;;14.07;;
20179;SDS011;10249;48.900;9.090;2023-07-20T01:41:47;14.30;;;13.70;;
20179;SDS011;10249;48.900;9.090;2023-07-20T01:44:14;14.47;;;13.87;;
20179;SDS011;10249;48.900;9.090;2023-07-20T01:46:41;14.20;;;13.60;;
20179;SDS011;10249;48.900;9.090;2023-07-20T01:49:10;14.27;;;13.67;;
20179;SDS011;10249;48.900;9.090;2023-07-20T01:51:37;13.90;;;13.30;;
20179;SDS011;10249;48.900;9.090;2023-07-20T01:54:05;14.03;;;13.43;;
20179;SDS011;10249;48.900;9.090;2023-07-20T01:56:32;14.10;;;13.50;;
20179;SDS011;10249;48.900;9.090;2023-07-20T01:58:59;13.57;;;12.97;;
20179;SDS011;10249;48.900;9.090;2023-07-20T02:01:26;14.00;;;13.40;;
20179;SDS011;10249;48.900;9.090;2023-07-20T02:03:54;13.90;;;13.30;;
20179;SDS011;10249;48.900;9.090;2023-07-20T02:06:23;13.60;;;13.00;;
20179;SDS011;10249;48.900;9.090;2023-07-20T02:08:50;13.23;;;12.73;;
20179;SDS011;10249;48.900;9.090;2023-07-20T02:11:17;13.20;;;12.70;;
20179;SDS011;10249;48.900;9.090;2023-07-20T02:13:45;13.30;;;12.80;;
20179;SDS011;10249;48.900;9.090;2023-07-20T02:16:12;13.30;;;12.77;;
20179;SDS011;10249;48.900;9.090;2023-07-20T02:18:39;13.03;;;12.53;;
20179;SDS011;10249;48.900;9.090;2023-07-20T02:21:06;13.40;;;12.90;;
20179;SDS011;10249;48.900;9.090;2023-07-20T02:23:34;13.17;;;12.67;;
20179;SDS011;10249;48.900;9.090;2023-07-20T02:26:01;13.20;;;12.70;;
20179;SDS011;10249;48.900;9.090;2023-07-20T02:28:28;13.00;;;12.50;;
20179;SDS011;10249;48.900;9.090;2023-07-20T02:30:55;13.10;;;12.60;;
20179;SDS011;10249;48.900;9.090;2023-07-20T02:33:22;12.83;;;12.33;;
20179;SDS011;10249;48.900;9.090;2023-07-20T02:35:49;13.00;;;12.50;;
20179;SDS011;10249;48.900;9.090;2023-07-20T02:38:16;12.70;;;12.20;;
20179;SDS011;10249;48.900;9.090;2023-07-20T02:40:45;13.00;;;12.50;;
20179;SDS011;10249;48.900;9.090;2023-07-20T02:43:12;12.70;;;12.20;;
20179;SDS011;10249;48.900;9.090;2023-07-20T02:45:42;12.00;;;11.50;;
20179;SDS011;10249;48.900;9.090;2023-07-20T02:48:09;12.07;;;11.57;;
20179;SDS011;10249;48.900;9.090;2023-07-20T02:50:36;12.30;;;11.80;;
20179;SDS011;10249;48.900;9.090;2023-07-20T02:53:03;12.27;;;11.77;;
20179;SDS011;10249;48.900;9.090;2023-07-20T02:55:30;12.50;;;12.00;;
20179;SDS011;10249;48.900;9.090;2023-07-20T02:57:58;12.40;;;11.90;;
20179;SDS011;10249;48.900;9.090;2023-07-20T03:00:25;12.53;;;12.03;;
20179;SDS011;10249;48.900;9.090;2023-07-20T03:02:52;12.33;;;11.83;;
20179;SDS011;10249;48.900;9.090;2023-07-20T03:05:20;12.37;;;11.87;;
20179;SDS011;10249;48.900;9.090;2023-07-20T03:07:48;12.40;;;11.90;;
20179;SDS011;10249;48.900;9.090;2023-07-20T03:10:16;12.50;;;12.00;;
20179;SDS011;10249;48.900;9.090;2023-07-20T03:12:43;12.40;;;11.90;;
20179;SDS011;10249;48.900;9.090;2023-07-20T03:15:11;12.30;;;11.80;;
20179;SDS011;10249;48.900;9.090;2023-07-20T03:17:38;12.43;;;11.93;;
20179;SDS011;10249;48.900;9.090;2023-07-20T03:20:06;12.20;;;11.70;;
20179;SDS011;10249;48.900;9.090;2023-07-20T03:22:35;12.40;;;11.90;;
20179;SDS011;10249;48.900;9.090;2023-07-20T03:25:02;12.50;;;12.00;;
20179;SDS011;10249;48.900;9.090;2023-07-20T03:27:30;12.57;;;12.07;;
20179;SDS011;10249;48.900;9.090;2023-07-20T03:29:57;12.20;;;11.70;;
20179;SDS011;10249;48.900;9.090;2023-07-20T03:32:25;12.20;;;11.70;;
20179;SDS011;10249;48.900;9.090;2023-07-20T03:34:52;12.10;;;11.60;;
20179;SDS011;10249;48.900;9.090;2023-07-20T03:37:19;11.70;;;11.30;;
20179;SDS011;10249;48.900;9.090;2023-07-20T03:39:46;12.00;;;11.50;;
20179;SDS011;10249;48.900;9.090;2023-07-20T03:42:14;11.60;;;11.20;;
20179;SDS011;10249;48.900;9.090;2023-07-20T03:44:41;11.60;;;11.20;;
20179;SDS011;10249;48.900;9.090;2023-07-20T03:47:08;11.50;;;11.10;;
20179;SDS011;10249;48.900;9.090;2023-07-20T03:49:36;11.73;;;11.30;;
20179;SDS011;10249;48.900;9.090;2023-07-20T03:52:04;11.30;;;10.90;;
20179;SDS011;10249;48.900;9.090;2023-07-20T03:54:31;11.20;;;10.80;;
20179;SDS011;10249;48.900;9.090;2023-07-20T03:56:58;11.30;;;10.90;;
20179;SDS011;10249;48.900;9.090;2023-07-20T03:59:25;11.03;;;10.63;;
20179;SDS011;10249;48.900;9.090;2023-07-20T04:01:52;11.20;;;10.80;;
20179;SDS011;10249;48.900;9.090;2023-07-20T04:04:19;10.90;;;10.50;;
20179;SDS011;10249;48.900;9.090;2023-07-20T04:06:48;10.80;;;10.40;;
20179;SDS011;10249;48.900;9.090;2023-07-20T04:09:15;11.20;;;10.80;;
20179;SDS011;10249;48.900;9.090;2023-07-20T04:11:42;11.17;;;10.77;;
20179;SDS011;10249;48.900;9.090;2023-07-20T04:14:09;11.30;;;10.90;;
20179;SDS011;10249;48.900;9.090;2023-07-20T04:16:36;11.30;;;10.90;;
20179;SDS011;10249;48.900;9.090;2023-07-20T04:19:03;11.27;;;10.87;;
20179;SDS011;10249;48.900;9.090;2023-07-20T04:21:30;11.00;;;10.60;;
20179;SDS011;10249;48.900;9.090;2023-07-20T04:23:59;11.10;;;10.70;;
20179;SDS011;10249;48.900;9.090;2023-07-20T04:26:26;11.30;;;10.90;;
20179;SDS011;10249;48.900;9.090;2023-07-20T04:28:53;11.30;;;10.90;;
20179;SDS011;10249;48.900;9.090;2023-07-20T04:31:20;11.70;;;11.20;;
20179;SDS011;10249;48.900;9.090;2023-07-20T04:33:47;11.47;;;11.07;;
20179;SDS011;10249;48.900;9.090;2023-07-20T04:36:14;11.43;;;11.03;;
20179;SDS011;10249;48.900;9.090;2023-07-20T04:38:44;11.47;;;11.07;;
20179;SDS011;10249;48.900;9.090;2023-07-20T04:41:13;11.77;;;11.37;;
20179;SDS011;10249;48.900;9.090;2023-07-20T04:43:40;11.90;;;11.40;;
20179;SDS011;10249;48.900;9.090;2023-07-20T04:46:08;11.50;;;11.10;;
20179;SDS011;10249;48.900;9.090;2023-07-20T04:48:35;11.60;;;11.20;;
20179;SDS011;10249;48.900;9.090;2023-07-20T04:51:02;11.40;;;11.00;;
20179;SDS011;10249;48.900;9.090;2023-07-20T04:53:30;12.10;;;11.60;;
20179;SDS011;10249;48.900;9.090;2023-07-20T04:55:57;11.47;;;11.07;;
20179;SDS011;10249;48.900;9.090;2023-07-20T04:58:25;11.80;;;11.30;;
20179;SDS011;10249;48.900;9.090;2023-07-20T05:00:52;11.90;;;11.40;;
20179;SDS011;10249;48.900;9.090;2023-07-20T05:03:19;11.90;;;11.40;;
20179;SDS011;10249;48.900;9.090;2023-07-20T05:05:47;12.10;;;11.60;;
20179;SDS011;10249;48.900;9.090;2023-07-20T05:08:14;12.30;;;11.80;;
20179;SDS011;10249;48.900;9.090;2023-07-20T05:10:41;12.13;;;11.63;;
20179;SDS011;10249;48.900;9.090;2023-07-20T05:13:08;12.33;;;11.83;;
20179;SDS011;10249;48.900;9.090;2023-07-20T05:15:37;12.60;;;12.10;;
20179;SDS011;10249;48.900;9.090;2023-07-20T05:18:04;12.40;;;11.90;;
20179;SDS011;10249;48.900;9.090;2023-07-20T05:20:31;12.30;;;11.80;;
20179;SDS011;10249;48.900;9.090;2023-07-20T05:22:58;12.47;;;11.97;;
20179;SDS011;10249;48.900;9.090;2023-07-20T05:25:26;12.47;;;11.97;;
20179;SDS011;10249;48.900;9.090;2023-07-20T05:27:53;12.70;;;12.20;;
20179;SDS011;10249;48.900;9.090;2023-07-20T05:30:21;12.40;;;11.90;;
20179;SDS011;10249;48.900;9.090;2023-07-20T05:32:49;12.57;;;12.07;;
20179;SDS011;10249;48.900;9.090;2023-07-20T05:35:17;12.40;;;11.90;;
20179;SDS011;10249;48.900;9.090;2023-07-20T05:37:44;13.13;;;12.63;;
20179;SDS011;10249;48.900;9.090;2023-07-20T05:40:12;12.77;;;12.27;;
20179;SDS011;10249;48.900;9.090;2023-07-20T05:42:39;13.07;;;12.57;;
20179;SDS011;10249;48.900;9.090;2023-07-20T05:45:07;13.10;;;12.60;;
20179;SDS011;10249;48.900;9.090;2023-07-20T05:47:34;13.40;;;12.80;;
20179;SDS011;10249;48.900;9.090;2023-07-20T05:50:02;13.93;;;13.33;;
20179;SDS011;10249;48.900;9.090;2023-07-20T05:52:29;14.10;;;13.50;;
20179;SDS011;10249;48.900;9.090;2023-07-20T05:54:57;13.80;;;13.20;;
20179;SDS011;10249;48.900;9.090;2023-07-20T05:57:24;13.80;;;13.20;;
20179;SDS011;10249;48.900;9.090;2023-07-20T05:59:51;13.70;;;13.10;;
20179;SDS011;10249;48.900;9.090;2023-07-20T06:02:18;14.00;;;13.40;;
20179;SDS011;10249;48.900;9.090;2023-07-20T06:04:45;14.30;;;13.70;;
20179;SDS011;10249;48.900;9.090;2023-07-20T06:07:13;14.10;;;13.50;;
20179;SDS011;10249;48.900;9.090;2023-07-20T06:09:41;14.23;;;13.63;;
20179;SDS011;10249;48.900;9.090;2023-07-20T06:12:08;14.80;;;14.10;;
20179;SDS011;10249;48.900;9.090;2023-07-20T06:14:35;14.40;;;13.80;;
20179;SDS011;10249;48.900;9.090;2023-07-20T06:17:03;14.77;;;14.07;;
20179;SDS011;10249;48.900;9.090;2023-07-20T06:19:30;14.97;;;14.23;;
20179;SDS011;10249;48.900;9.090;2023-07-20T06:21:57;14.90;;;14.20;;
20179;SDS011;10249;48.900;9.090;2023-07-20T06:24:26;14.60;;;14.00;;
20179;SDS011;10249;48.900;9.090;2023-07-20T06:26:53;14.90;;;14.20;;
20179;SDS011;10249;48.900;9.090;2023-07-20T06:29:20;14.47;;;13.87;;
20179;SDS011;10249;48.900;9.090;2023-07-20T06:31:47;14.63;;;14.03;;
20179;SDS011;10249;48.900;9.090;2023-07-20T06:34:14;14.90;;;14.20;;
20179;SDS011;10249;48.900;9.090;2023-07-20T06:36:41;14.30;;;13.70;;
20179;SDS011;10249;48.900;9.090;2023-07-20T06:39:08;14.90;;;14.20;;
20179;SDS011;10249;48.900;9.090;2023-07-20T06:41:37;14.67;;;14.07;;
20179;SDS011;10249;48.900;9.090;2023-07-20T06:44:04;14.13;;;13.53;;
20179;SDS011;10249;48.900;9.090;2023-07-20T06:46:31;14.57;;;13.97;;
20179;SDS011;10249;48.900;9.090;2023-07-20T06:48:58;14.07;;;13.47;;
20179;SDS011;10249;48.900;9.090;2023-07-20T06:51:25;14.40;;;13.80;;
20179;SDS011;10249;48.900;9.090;2023-07-20T06:53:52;14.20;;;13.60;;
20179;SDS011;10249;48.900;9.090;2023-07-20T06:56:19;14.43;;;13.83;;
20179;SDS011;10249;48.900;9.090;2023-07-20T06:58:47;14.60;;;14.00;;
20179;SDS011;10249;48.900;9.090;2023-07-20T07:01:15;14.37;;;13.77;;
20179;SDS011;10249;48.900;9.090;2023-07-20T07:03:42;14.60;;;14.00;;
20179;SDS011;10249;48.900;9.090;2023-07-20T07:06:10;14.53;;;13.93;;
20179;SDS011;10249;48.900;9.090;2023-07-20T07:08:37;14.27;;;13.67;;
20179;SDS011;10249;48.900;9.090;2023-07-20T07:11:04;14.33;;;13.73;;
20179;SDS011;10249;48.900;9.090;2023-07-20T07:13:31;14.63;;;14.03;;
20179;SDS011;10249;48.900;9.090;2023-07-20T07:16:00;14.40;;;13.80;;
20179;SDS011;10249;48.900;9.090;2023-07-20T07:18:27;14.10;;;13.50;;
20179;SDS011;10249;48.900;9.090;2023-07-20T07:20:54;14.70;;;14.00;;
20179;SDS011;10249;48.900;9.090;2023-07-20T07:23:21;14.60;;;14.00;;
20179;SDS011;10249;48.900;9.090;2023-07-20T07:25:48;14.70;;;14.10;;
20179;SDS011;10249;48.900;9.090;2023-07-20T07:28:15;14.70;;;14.10;;
20179;SDS011;10249;48.900;9.090;2023-07-20T07:30:42;14.70;;;14.10;;
20179;SDS011;10249;48.900;9.090;2023-07-20T07:33:11;14.27;;;13.67;;
20179;SDS011;10249;48.900;9.090;2023-07-20T07:35:38;14.50;;;13.90;;
20179;SDS011;10249;48.900;9.090;2023-07-20T07:38:05;14.57;;;13.93;;
20179;SDS011;10249;48.900;9.090;2023-07-20T07:40:32;15.10;;;14.40;;
20179;SDS011;10249;48.900;9.090;2023-07-20T07:42:59;14.83;;;14.13;;
20179;SDS011;10249;48.900;9.090;2023-07-20T07:45:27;15.30;;;14.50;;
20179;SDS011;10249;48.900;9.090;2023-07-20T07:47:54;15.00;;;14.30;;
20179;SDS011;10249;48.900;9.090;2023-07-20T07:50:22;15.10;;;14.40;;
20179;SDS011;10249;48.900;9.090;2023-07-20T07:52:49;47.50;;;45.80;;
20179;SDS011;10249;48.900;9.090;2023-07-20T07:55:17;46.00;;;44.30;;
20179;SDS011;10249;48.900;9.090;2023-07-20T07:57:44;50.30;;;48.40;;
20179;SDS011;10249;48.900;9.090;2023-07-20T08:00:12;47.40;;;45.60;;
20179;SDS011;10249;48.900;9.090;2023-07-20T08:02:40;47.10;;;45.40;;
20179;SDS011;10249;48.900;9.090;2023-07-20T08:05:08;48.83;;;47.03;;
20179;SDS011;10249;48.900;9.090;2023-07-20T08:07:36;46.20;;;44.50;;
20179;SDS011;10249;48.900;9.090;2023-07-20T08:10:04;45.57;;;43.87;;
20179;SDS011;10249;48.900;9.090;2023-07-20T08:12:31;46.93;;;45.13;;
20179;SDS011;10249;48.900;9.090;2023-07-20T08:14:58;47.93;;;46.13;;
20179;SDS011;10249;48.900;9.090;2023-07-20T08:17:25;45.57;;;43.87;;
20179;SDS011;10249;48.900;9.090;2023-07-20T08:19:52;44.53;;;42.87;;
20179;SDS011;10249;48.900;9.090;2023-07-20T08:22:19;46.63;;;44.93;;
20179;SDS011;10249;48.900;9.090;2023-07-20T08:24:48;47.37;;;45.60;;
20179;SDS011;10249;48.900;9.090;2023-07-20T08:27:15;46.63;;;44.93;;
20179;SDS011;10249;48.900;9.090;2023-07-20T08:29:42;48.63;;;46.83;;
20179;SDS011;10249;48.900;9.090;2023-07-20T08:32:09;47.70;;;45.90;;
20179;SDS011;10249;48.900;9.090;2023-07-20T08:34:38;46.93;;;45.23;;
20179;SDS011;10249;48.900;9.090;2023-07-20T08:37:05;48.10;;;46.30;;
20179;SDS011;10249;48.900;9.090;2023-07-20T08:39:35;48.00;;;46.20;;
20179;SDS011;10249;48.900;9.090;2023-07-20T08:42:03;48.53;;;46.73;;
20179;SDS011;10249;48.900;9.090;2023-07-20T08:44:31;47.33;;;45.63;;
20179;SDS011;10249;48.900;9.090;2023-07-20T08:46:59;47.17;;;45.37;;
20179;SDS011;10249;48.900;9.090;2023-07-20T08:49:28;48.33;;;46.43;;
20179;SDS011;10249;48.900;9.090;2023-07-20T08:51:55;47.23;;;45.47;;
20179;SDS011;10249;48.900;9.090;2023-07-20T08:54:24;47.97;;;46.17;;
20179;SDS011;10249;48.900;9.090;2023-07-20T08:56:51;47.03;;;45.27;;
20179;SDS011;10249;48.900;9.090;2023-07-20T08:59:19;47.70;;;45.90;;
20179;SDS011;10249;48.900;9.090;2023-07-20T09:01:47;48.87;;;47.07;;
20179;SDS011;10249;48.900;9.090;2023-07-20T09:04:15;49.30;;;47.50;;
20179;SDS011;10249;48.900;9.090;2023-07-20T09:06:42;49.23;;;47.30;;
20179;SDS011;10249;48.900;9.090;2023-07-20T09:09:09;47.87;;;45.97;;
20179;SDS011;10249;48.900;9.090;2023-07-20T09:11:36;49.97;;;48.07;;
20179;SDS011;10249;48.900;9.090;2023-07-20T09:14:03;49.17;;;47.37;;
20179;SDS011;10249;48.900;9.090;2023-07-20T09:16:32;49.33;;;47.43;;
20179;SDS011;10249;48.900;9.090;2023-07-20T09:18:59;46.33;;;44.47;;
20179;SDS011;10249;48.900;9.090;2023-07-20T09:21:28;45.77;;;44.07;;
20179;SDS011;10249;48.900;9.090;2023-07-20T09:23:56;47.53;;;45.67;;
20179;SDS011;10249;48.900;9.090;2023-07-20T09:26:23;45.97;;;44.27;;
20179;SDS011;10249;48.900;9.090;2023-07-20T09:28:51;45.37;;;43.67;;
20179;SDS011;10249;48.900;9.090;2023-07-20T09:31:19;46.63;;;44.83;;
20179;SDS011;10249;48.900;9.090;2023-07-20T09:33:48;46.57;;;44.87;;
20179;SDS011;10249;48.900;9.090;2023-07-20T09:36:16;49.33;;;47.43;;
20179;SDS011;10249;48.900;9.090;2023-07-20T09:38:43;46.97;;;45.17;;
20179;SDS011;10249;48.900;9.090;2023-07-20T09:41:13;46.90;;;45.10;;
20179;SDS011;10249;48.900;9.090;2023-07-20T09:43:40;48.77;;;46.97;;
20179;SDS011;10249;48.900;9.090;2023-07-20T09:46:07;47.30;;;45.50;;
20179;SDS011;10249;48.900;9.090;2023-07-20T09:48:34;47.77;;;45.97;;
20179;SDS011;10249;48.900;9.090;2023-07-20T09:51:03;50.77;;;48.87;;
20179;SDS011;10249;48.900;9.090;2023-07-20T09:53:32;49.40;;;47.50;;
20179;SDS011;10249;48.900;9.090;2023-07-20T09:55:59;15.97;;;15.27;;
20179;SDS011;10249;48.900;9.090;2023-07-20T09:58:26;16.30;;;15.50;;
20179;SDS011;10249;48.900;9.090;2023-07-20T10:00:54;16.33;;;15.53;;
20179;SDS011;10249;48.900;9.090;2023-07-20T10:03:25;15.90;;;15.20;;
20179;SDS011;10249;48.900;9.090;2023-07-20T10:05:56;16.03;;;15.23;;
20179;SDS011;10249;48.900;9.090;2023-07-20T10:08:25;15.23;;;14.53;;
20179;SDS011;10249;48.900;9.090;2023-07-20T10:10:52;15.70;;;14.90;;
20179;SDS011;10249;48.900;9.090;2023-07-20T10:13:21;15.90;;;15.10;;
20179;SDS011;10249;48.900;9.090;2023-07-20T10:15:50;15.80;;;15.00;;
20179;SDS011;10249;48.900;9.090;2023-07-20T10:18:17;15.70;;;14.90;;
20179;SDS011;10249;48.900;9.090;2023-07-20T10:20:45;16.50;;;15.70;;
20179;SDS011;10249;48.900;9.090;2023-07-20T10:23:13;15.97;;;15.27;;
20179;SDS011;10249;48.900;9.090;2023-07-20T10:25:41;16.77;;;15.97;;
20179;SDS011;10249;48.900;9.090;2023-07-20T10:28:09;16.30;;;15.50;;
20179;SDS011;10249;48.900;9.090;2023-07-20T10:30:37;16.80;;;16.00;;
20179;SDS011;10249;48.900;9.090;2023-07-20T10:33:04;16.73;;;15.93;;
20179;SDS011;10249;48.900;9.090;2023-07-20T10:35:50;16.50;;;15.70;;
20179;SDS011;10249;48.900;9.090;2023-07-20T10:38:17;16.33;;;15.53;;
20179;SDS011;10249;48.900;9.090;2023-07-20T10:40:54;15.67;;;14.97;;
20179;SDS011;10249;48.900;9.090;2023-07-20T10:43:22;16.30;;;15.50;;
20179;SDS011;10249;48.900;9.090;2023-07-20T10:45:51;16.13;;;15.33;;
20179;SDS011;10249;48.900;9.090;2023-07-20T10:48:18;17.07;;;16.27;;
20179;SDS011;10249;48.900;9.090;2023-07-20T10:50:48;16.80;;;16.00;;
20179;SDS011;10249;48.900;9.090;2023-07-20T10:53:33;16.17;;;15.37;;
20179;SDS011;10249;48.900;9.090;2023-07-20T10:56:08;16.40;;;15.60;;
20179;SDS011;10249;48.900;9.090;2023-07-20T10:58:35;15.80;;;15.10;;
20179;SDS011;10249;48.900;9.090;2023-07-20T11:01:03;16.50;;;15.70;;
20179;SDS011;10249;48.900;9.090;2023-07-20T11:03:32;15.87;;;15.07;;
20179;SDS011;10249;48.900;9.090;2023-07-20T11:05:59;16.20;;;15.40;;
20179;SDS011;10249;48.900;9.090;2023-07-20T11:08:40;16.67;;;15.77;;
20179;SDS011;10249;48.900;9.090;2023-07-20T11:11:25;16.60;;;15.80;;
20179;SDS011;10249;48.900;9.090;2023-07-20T11:13:56;16.43;;;15.63;;
20179;SDS011;10249;48.900;9.090;2023-07-20T11:16:33;16.77;;;15.97;;
20179;SDS011;10249;48.900;9.090;2023-07-20T11:19:00;15.60;;;14.90;;
20179;SDS011;10249;48.900;9.090;2023-07-20T11:21:28;16.53;;;15.70;;
20179;SDS011;10249;48.900;9.090;2023-07-20T11:23:56;15.97;;;15.20;;
20179;SDS011;10249;48.900;9.090;2023-07-20T11:26:24;16.50;;;15.70;;
20179;SDS011;10249;48.900;9.090;2023-07-20T11:28:51;16.53;;;15.73;;
20179;SDS011;10249;48.900;9.090;2023-07-20T11:31:18;16.17;;;15.37;;
20179;SDS011;10249;48.900;9.090;2023-07-20T11:33:46;15.90;;;15.20;;
20179;SDS011;10249;48.900;9.090;2023-07-20T11:36:13;16.03;;;15.33;;
20179;SDS011;10249;48.900;9.090;2023-07-20T11:38:41;15.60;;;14.90;;
20179;SDS011;10249;48.900;9.090;2023-07-20T11:41:09;15.50;;;14.80;;
20179;SDS011;10249;48.900;9.090;2023-07-20T11:43:37;16.23;;;15.48;;
20179;SDS011;10249;48.900;9.090;2023-07-20T11:46:05;15.90;;;15.20;;
20179;SDS011;10249;48.900;9.090;2023-07-20T11:48:32;17.02;;;16.23;;
20179;SDS011;10249;48.900;9.090;2023-07-20T11:50:59;16.40;;;15.60;;
20179;SDS011;10249;48.900;9.090;2023-07-20T11:53:26;16.25;;;15.55;;
20179;SDS011;10249;48.900;9.090;2023-07-20T11:55:53;15.98;;;15.27;;
20179;SDS011;10249;48.900;9.090;2023-07-20T11:58:20;16.50;;;15.70;;
20179;SDS011;10249;48.900;9.090;2023-07-20T12:00:49;16.98;;;16.17;;
20179;SDS011;10249;48.900;9.090;2023-07-20T12:03:16;17.97;;;17.17;;
20179;SDS011;10249;48.900;9.090;2023-07-20T12:05:44;16.92;;;16.13;;
20179;SDS011;10249;48.900;9.090;2023-07-20T12:08:11;16.15;;;15.35;;
20179;SDS011;10249;48.900;9.090;2023-07-20T12:10:39;16.33;;;15.52;;
20179;SDS011;10249;48.900;9.090;2023-07-20T12:13:09;16.13;;;15.43;;
20179;SDS011;10249;48.900;9.090;2023-07-20T12:15:37;16.45;;;15.65;;
20179;SDS011;10249;48.900;9.090;2023-07-20T12:18:05;16.98;;;16.17;;
20179;SDS011;10249;48.900;9.090;2023-07-20T12:20:33;17.17;;;16.27;;
20179;SDS011;10249;48.900;9.090;2023-07-20T12:23:02;16.73;;;15.93;;
20179;SDS011;10249;48.900;9.090;2023-07-20T12:25:33;17.48;;;16.67;;
20179;SDS011;10249;48.900;9.090;2023-07-20T12:28:01;16.50;;;15.70;;
20179;SDS011;10249;48.900;9.090;2023-07-20T12:30:28;19.13;;;18.23;;
20179;SDS011;10249;48.900;9.090;2023-07-20T12:32:56;17.75;;;16.85;;
20179;SDS011;10249;48.900;9.090;2023-07-20T12:35:24;17.10;;;16.30;;
20179;SDS011;10249;48.900;9.090;2023-07-20T12:37:51;16.98;;;16.17;;
20179;SDS011;10249;48.900;9.090;2023-07-20T12:40:18;17.60;;;16.60;;
20179;SDS011;10249;48.900;9.090;2023-07-20T12:42:46;16.33;;;15.52;;
20179;SDS011;10249;48.900;9.090;2023-07-20T12:45:13;16.83;;;16.02;;
20179;SDS011;10249;48.900;9.090;2023-07-20T12:47:41;16.23;;;15.43;;
20179;SDS011;10249;48.900;9.090;2023-07-20T12:50:08;15.82;;;15.02;;
20179;SDS011;10249;48.900;9.090;2023-07-20T12:52:37;16.48;;;15.68;;
20179;SDS011;10249;48.900;9.090;2023-07-20T12:55:05;16.10;;;15.30;;
20179;SDS011;10249;48.900;9.090;2023-07-20T12:57:32;15.80;;;15.00;;
20179;SDS011;10249;48.900;9.090;2023-07-20T13:00:00;15.80;;;15.00;;
20179;SDS011;10249;48.900;9.090;2023-07-20T13:02:29;15.70;;;14.90;;
20179;SDS011;10249;48.900;9.090;2023-07-20T13:04:56;16.27;;;15.48;;
20179;SDS011;10249;48.900;9.090;2023-07-20T13:07:29;16.40;;;15.60;;
20179;SDS011;10249;48.900;9.090;2023-07-20T13:09:58;15.32;;;14.63;;
20179;SDS011;10249;48.900;9.090;2023-07-20T13:12:25;15.75;;;14.95;;
20179;SDS011;10249;48.900;9.090;2023-07-20T13:14:52;15.80;;;15.00;;
20179;SDS011;10249;48.900;9.090;2023-07-20T13:17:20;15.80;;;15.00;;
20179;SDS011;10249;48.900;9.090;2023-07-20T13:19:47;15.50;;;14.80;;
20179;SDS011;10249;48.900;9.090;2023-07-20T13:22:14;15.75;;;14.95;;
20179;SDS011;10249;48.900;9.090;2023-07-20T13:24:41;15.95;;;15.15;;
20179;SDS011;10249;48.900;9.090;2023-07-20T13:27:10;16.85;;;16.05;;
20179;SDS011;10249;48.900;9.090;2023-07-20T13:29:37;16.10;;;15.30;;
20179;SDS011;10249;48.900;9.090;2023-07-20T13:32:04;16.15;;;15.35;;
20179;SDS011;10249;48.900;9.090;2023-07-20T13:34:31;15.93;;;15.13;;
20179;SDS011;10249;48.900;9.090;2023-07-20T13:36:59;15.38;;;14.68;;
20179;SDS011;10249;48.900;9.090;2023-07-20T13:39:26;15.60;;;14.80;;
20179;SDS011;10249;48.900;9.090;2023-07-20T13:41:53;15.40;;;14.65;;
20179;SDS011;10249;48.900;9.090;2023-07-20T13:44:22;15.70;;;14.90;;
20179;SDS011;10249;48.900;9.090;2023-07-20T13:46:49;15.80;;;15.00;;
20179;SDS011;10249;48.900;9.090;2023-07-20T13:49:16;16.85;;;15.95;;
20179;SDS011;10249;48.900;9.090;2023-07-20T13:51:43;17.13;;;16.33;;
20179;SDS011;10249;48.900;9.090;2023-07-20T13:54:10;16.58;;;15.77;;
20179;SDS011;10249;48.900;9.090;2023-07-20T13:56:38;16.98;;;16.17;;
20179;SDS011;10249;48.900;9.090;2023-07-20T13:59:05;17.25;;;16.35;;
20179;SDS011;10249;48.900;9.090;2023-07-20T14:01:33;16.15;;;15.35;;
20179;SDS011;10249;48.900;9.090;2023-07-20T14:04:00;16.00;;;15.20;;
20179;SDS011;10249;48.900;9.090;2023-07-20T14:06:29;16.23;;;15.43;;
20179;SDS011;10249;48.900;9.090;2023-07-20T14:08:56;16.40;;;15.60;;
20179;SDS011;10249;48.900;9.090;2023-07-20T14:11:23;15.73;;;14.93;;
20179;SDS011;10249;48.900;9.090;2023-07-20T14:13:50;15.40;;;14.70;;
20179;SDS011;10249;48.900;9.090;2023-07-20T14:16:18;15.25;;;14.55;;
20179;SDS011;10249;48.900;9.090;2023-07-20T14:18:46;15.75;;;14.95;;
20179;SDS011;10249;48.900;9.090;2023-07-20T14:21:14;15.70;;;14.95;;
20179;SDS011;10249;48.900;9.090;2023-07-20T14:23:41;16.02;;;15.23;;
20179;SDS011;10249;48.900;9.090;2023-07-20T14:26:08;15.75;;;14.95;;
20179;SDS011;10249;48.900;9.090;2023-07-20T14:28:35;15.68;;;14.88;;